Current | Forecast
Updated: 4:30 AM EET on December 12, 2017
Observed at L'viv, Ukraine
Temperature 9°C
Humidity 62%
Dew Point 2°C
Wind SSW at 14 km/h
Pressure 1001 hPa (Steady)
Conditions Clear
Visibility -
UV N/A
Clouds
Yesterday's Maximum 9°C
Yesterday's Minimum -1°C approx.
Yesterday's Heating Degree Days 26 approx.
Sunrise8:14 AM EET
Sunset4:28 PM EET
Moon Rise1:49 AM EET
Moon Set1:58 PM EET
Moon PhaseMoon Phase
Waning Crescent
Raw METARMETAR UKLL 120230Z 20004MPS CAVOK 09/02 Q1001 R13/810560 TEMPO 22010G17MPS


Monday
. High: 62° F.
Tuesday
. High: 66° F.
Wednesday
. High: 77° F.
Thursday
. High: 82° F.
Friday
. High: 68° F.
Saturday
. High: 66° F.
Sunday
. High: 71° F.
Monday
. High: 75° F.

Units: English | Metric

Find the Weather for any City, State or Zipcode, or Country:

U.S. State List | Severe Weather | Tropical Storms | Ski Conditions
United States | Canada | Central America | South America | Asia | Europe | Australia | Africa | Islands

Weather Underground

© Copyright 2017
The Weather Company, LLC